sensor_id;sensor_type;location;lat;lon;timestamp;pressure;altitude;pressure_sealevel;temperature;humidity
74065;BME280;62421;51.412;5.432;2022-08-21T00:00:14;101582.28;;;14.11;78.56
74065;BME280;62421;51.412;5.432;2022-08-21T00:02:52;101578.88;;;14.09;78.54
74065;BME280;62421;51.412;5.432;2022-08-21T00:05:18;101577.22;;;14.06;78.94
74065;BME280;62421;51.412;5.432;2022-08-21T00:07:43;101585.47;;;14.05;78.57
74065;BME280;62421;51.412;5.432;2022-08-21T00:10:09;101582.34;;;13.98;79.35
74065;BME280;62421;51.412;5.432;2022-08-21T00:12:35;101572.50;;;13.97;79.36
74065;BME280;62421;51.412;5.432;2022-08-21T00:15:00;101573.59;;;13.95;79.13
74065;BME280;62421;51.412;5.432;2022-08-21T00:17:26;101575.44;;;13.94;79.58
74065;BME280;62421;51.412;5.432;2022-08-21T00:19:51;101578.44;;;13.89;79.33
74065;BME280;62421;51.412;5.432;2022-08-21T00:22:16;101572.31;;;13.87;79.50
74065;BME280;62421;51.412;5.432;2022-08-21T00:24:42;101579.88;;;13.82;79.60
74065;BME280;62421;51.412;5.432;2022-08-21T00:27:08;101580.88;;;13.81;79.45
74065;BME280;62421;51.412;5.432;2022-08-21T00:29:33;101583.78;;;13.78;79.62
74065;BME280;62421;51.412;5.432;2022-08-21T00:31:58;101571.25;;;13.77;79.63
74065;BME280;62421;51.412;5.432;2022-08-21T00:34:24;101570.41;;;13.77;79.43
74065;BME280;62421;51.412;5.432;2022-08-21T00:36:49;101564.25;;;13.75;79.98
74065;BME280;62421;51.412;5.432;2022-08-21T00:39:15;101571.69;;;13.71;79.87
74065;BME280;62421;51.412;5.432;2022-08-21T00:41:41;101565.53;;;13.69;79.98
74065;BME280;62421;51.412;5.432;2022-08-21T00:44:09;101560.25;;;13.67;80.13
74065;BME280;62421;51.412;5.432;2022-08-21T00:46:36;101557.69;;;13.66;80.36
74065;BME280;62421;51.412;5.432;2022-08-21T00:49:03;101565.03;;;13.64;80.33
74065;BME280;62421;51.412;5.432;2022-08-21T00:51:39;101562.53;;;13.61;79.91
74065;BME280;62421;51.412;5.432;2022-08-21T00:54:07;101559.16;;;13.57;80.66
74065;BME280;62421;51.412;5.432;2022-08-21T00:56:33;101557.38;;;13.58;80.45
74065;BME280;62421;51.412;5.432;2022-08-21T00:59:00;101564.81;;;13.54;80.67
74065;BME280;62421;51.412;5.432;2022-08-21T01:01:26;101561.34;;;13.52;80.80
74065;BME280;62421;51.412;5.432;2022-08-21T01:03:52;101559.75;;;13.49;80.48
74065;BME280;62421;51.412;5.432;2022-08-21T01:06:17;101555.44;;;13.47;80.71
74065;BME280;62421;51.412;5.432;2022-08-21T01:08:43;101558.47;;;13.42;80.66
74065;BME280;62421;51.412;5.432;2022-08-21T01:11:09;101549.59;;;13.40;80.95
74065;BME280;62421;51.412;5.432;2022-08-21T01:13:36;101553.50;;;13.36;80.88
74065;BME280;62421;51.412;5.432;2022-08-21T01:16:04;101559.97;;;13.34;80.79
74065;BME280;62421;51.412;5.432;2022-08-21T01:18:30;101558.13;;;13.34;81.07
74065;BME280;62421;51.412;5.432;2022-08-21T01:21:00;101556.63;;;13.30;80.88
74065;BME280;62421;51.412;5.432;2022-08-21T01:23:25;101551.22;;;13.30;81.22
74065;BME280;62421;51.412;5.432;2022-08-21T01:25:51;101548.41;;;13.19;81.13
74065;BME280;62421;51.412;5.432;2022-08-21T01:28:17;101543.09;;;13.17;81.52
74065;BME280;62421;51.412;5.432;2022-08-21T01:30:43;101549.44;;;13.16;81.41
74065;BME280;62421;51.412;5.432;2022-08-21T01:33:09;101550.53;;;13.14;81.34
74065;BME280;62421;51.412;5.432;2022-08-21T01:35:34;101546.00;;;13.14;81.96
74065;BME280;62421;51.412;5.432;2022-08-21T01:38:00;101555.06;;;13.13;81.59
74065;BME280;62421;51.412;5.432;2022-08-21T01:40:26;101540.72;;;13.13;81.79
74065;BME280;62421;51.412;5.432;2022-08-21T01:42:51;101546.31;;;13.09;81.70
74065;BME280;62421;51.412;5.432;2022-08-21T01:45:18;101549.25;;;13.06;81.90
74065;BME280;62421;51.412;5.432;2022-08-21T01:47:44;101541.34;;;13.03;82.10
74065;BME280;62421;51.412;5.432;2022-08-21T01:50:12;101546.88;;;13.02;81.75
74065;BME280;62421;51.412;5.432;2022-08-21T01:52:39;101543.28;;;13.01;81.54
74065;BME280;62421;51.412;5.432;2022-08-21T01:55:09;101557.84;;;12.99;81.67
74065;BME280;62421;51.412;5.432;2022-08-21T01:57:35;101543.72;;;12.95;81.96
74065;BME280;62421;51.412;5.432;2022-08-21T02:00:03;101548.38;;;12.93;82.07
74065;BME280;62421;51.412;5.432;2022-08-21T02:02:29;101544.03;;;12.90;82.12
74065;BME280;62421;51.412;5.432;2022-08-21T02:04:54;101536.91;;;12.89;82.04
74065;BME280;62421;51.412;5.432;2022-08-21T02:07:20;101541.66;;;12.86;82.16
74065;BME280;62421;51.412;5.432;2022-08-21T02:09:46;101529.34;;;12.82;82.16
74065;BME280;62421;51.412;5.432;2022-08-21T02:12:11;101526.88;;;12.79;82.41
74065;BME280;62421;51.412;5.432;2022-08-21T02:14:37;101526.34;;;12.74;82.50
74065;BME280;62421;51.412;5.432;2022-08-21T02:17:03;101533.75;;;12.70;82.75
74065;BME280;62421;51.412;5.432;2022-08-21T02:19:29;101527.63;;;12.68;82.54
74065;BME280;62421;51.412;5.432;2022-08-21T02:21:54;101520.50;;;12.67;82.47
74065;BME280;62421;51.412;5.432;2022-08-21T02:24:19;101527.72;;;12.66;82.73
74065;BME280;62421;51.412;5.432;2022-08-21T02:26:45;101527.06;;;12.63;82.66
74065;BME280;62421;51.412;5.432;2022-08-21T02:29:10;101528.13;;;12.60;82.71
74065;BME280;62421;51.412;5.432;2022-08-21T02:31:35;101533.19;;;12.52;83.11
74065;BME280;62421;51.412;5.432;2022-08-21T02:34:01;101528.00;;;12.49;83.35
74065;BME280;62421;51.412;5.432;2022-08-21T02:36:26;101528.84;;;12.49;83.09
74065;BME280;62421;51.412;5.432;2022-08-21T02:38:52;101529.91;;;12.47;83.05
74065;BME280;62421;51.412;5.432;2022-08-21T02:41:19;101534.75;;;12.42;83.13
74065;BME280;62421;51.412;5.432;2022-08-21T02:43:46;101522.47;;;12.38;83.40
74065;BME280;62421;51.412;5.432;2022-08-21T02:46:15;101532.47;;;12.36;83.88
74065;BME280;62421;51.412;5.432;2022-08-21T02:48:41;101528.94;;;12.35;83.82
74065;BME280;62421;51.412;5.432;2022-08-21T02:51:13;101535.47;;;12.31;83.67
74065;BME280;62421;51.412;5.432;2022-08-21T02:53:40;101530.19;;;12.29;84.11
74065;BME280;62421;51.412;5.432;2022-08-21T02:56:10;101530.28;;;12.28;83.68
74065;BME280;62421;51.412;5.432;2022-08-21T02:58:40;101534.72;;;12.29;83.91
74065;BME280;62421;51.412;5.432;2022-08-21T03:01:07;101530.41;;;12.26;83.86
74065;BME280;62421;51.412;5.432;2022-08-21T03:03:35;101524.34;;;12.23;83.76
74065;BME280;62421;51.412;5.432;2022-08-21T03:06:02;101525.31;;;12.22;84.13
74065;BME280;62421;51.412;5.432;2022-08-21T03:08:28;101533.50;;;12.20;83.77
74065;BME280;62421;51.412;5.432;2022-08-21T03:10:54;101528.22;;;12.19;84.00
74065;BME280;62421;51.412;5.432;2022-08-21T03:13:20;101525.59;;;12.17;84.17
74065;BME280;62421;51.412;5.432;2022-08-21T03:15:46;101530.13;;;12.17;84.61
74065;BME280;62421;51.412;5.432;2022-08-21T03:18:12;101525.81;;;12.14;84.54
74065;BME280;62421;51.412;5.432;2022-08-21T03:20:39;101527.97;;;12.09;84.54
74065;BME280;62421;51.412;5.432;2022-08-21T03:23:06;101526.97;;;12.10;84.73
74065;BME280;62421;51.412;5.432;2022-08-21T03:25:32;101521.06;;;12.05;84.49
74065;BME280;62421;51.412;5.432;2022-08-21T03:27:59;101533.34;;;12.09;84.56
74065;BME280;62421;51.412;5.432;2022-08-21T03:30:24;101519.13;;;12.07;84.14
74065;BME280;62421;51.412;5.432;2022-08-21T03:32:50;101521.81;;;12.07;84.33
74065;BME280;62421;51.412;5.432;2022-08-21T03:35:17;101516.81;;;12.01;84.03
74065;BME280;62421;51.412;5.432;2022-08-21T03:37:43;101523.38;;;11.97;84.62
74065;BME280;62421;51.412;5.432;2022-08-21T03:40:10;101520.59;;;11.98;84.24
74065;BME280;62421;51.412;5.432;2022-08-21T03:42:36;101520.69;;;11.97;84.31
74065;BME280;62421;51.412;5.432;2022-08-21T03:45:02;101516.25;;;11.96;84.56
74065;BME280;62421;51.412;5.432;2022-08-21T03:47:28;101520.88;;;11.94;84.60
74065;BME280;62421;51.412;5.432;2022-08-21T03:49:53;101521.84;;;11.93;84.29
74065;BME280;62421;51.412;5.432;2022-08-21T03:52:19;101521.94;;;11.91;84.68
74065;BME280;62421;51.412;5.432;2022-08-21T03:54:45;101516.91;;;11.85;84.62
74065;BME280;62421;51.412;5.432;2022-08-21T03:57:10;101522.41;;;11.83;84.67
74065;BME280;62421;51.412;5.432;2022-08-21T03:59:36;101517.13;;;11.82;84.92
74065;BME280;62421;51.412;5.432;2022-08-21T04:02:05;101520.03;;;11.79;84.81
74065;BME280;62421;51.412;5.432;2022-08-21T04:04:31;101518.28;;;11.78;84.99
74065;BME280;62421;51.412;5.432;2022-08-21T04:06:57;101516.66;;;11.75;84.70
74065;BME280;62421;51.412;5.432;2022-08-21T04:09:23;101521.38;;;11.72;84.73
74065;BME280;62421;51.412;5.432;2022-08-21T04:11:48;101518.75;;;11.70;84.84
74065;BME280;62421;51.412;5.432;2022-08-21T04:14:14;101521.66;;;11.67;84.92
74065;BME280;62421;51.412;5.432;2022-08-21T04:16:41;101528.59;;;11.57;85.13
74065;BME280;62421;51.412;5.432;2022-08-21T04:19:07;101525.13;;;11.55;85.04
74065;BME280;62421;51.412;5.432;2022-08-21T04:21:32;101530.63;;;11.53;85.33
74065;BME280;62421;51.412;5.432;2022-08-21T04:23:58;101520.72;;;11.54;85.26
74065;BME280;62421;51.412;5.432;2022-08-21T04:26:24;101519.94;;;11.52;85.66
74065;BME280;62421;51.412;5.432;2022-08-21T04:28:50;101529.94;;;11.50;85.47
74065;BME280;62421;51.412;5.432;2022-08-21T04:31:16;101529.94;;;11.50;85.34
74065;BME280;62421;51.412;5.432;2022-08-21T04:33:41;101534.34;;;11.51;85.28
74065;BME280;62421;51.412;5.432;2022-08-21T04:36:07;101526.28;;;11.51;85.37
74065;BME280;62421;51.412;5.432;2022-08-21T04:38:33;101538.09;;;11.48;85.31
74065;BME280;62421;51.412;5.432;2022-08-21T04:40:58;101534.47;;;11.49;85.41
74065;BME280;62421;51.412;5.432;2022-08-21T04:43:24;101538.00;;;11.50;85.49
74065;BME280;62421;51.412;5.432;2022-08-21T04:45:50;101538.78;;;11.52;85.83
74065;BME280;62421;51.412;5.432;2022-08-21T04:48:19;101537.81;;;11.53;85.65
74065;BME280;62421;51.412;5.432;2022-08-21T04:50:50;101539.72;;;11.51;85.48
74065;BME280;62421;51.412;5.432;2022-08-21T04:53:25;101541.00;;;11.45;85.47
74065;BME280;62421;51.412;5.432;2022-08-21T04:55:52;101547.03;;;11.48;85.72
74065;BME280;62421;51.412;5.432;2022-08-21T04:58:20;101552.22;;;11.52;85.47
74065;BME280;62421;51.412;5.432;2022-08-21T05:00:48;101548.38;;;11.56;85.49
74065;BME280;62421;51.412;5.432;2022-08-21T05:03:14;101543.00;;;11.56;85.74
74065;BME280;62421;51.412;5.432;2022-08-21T05:05:41;101544.53;;;11.60;85.44
74065;BME280;62421;51.412;5.432;2022-08-21T05:08:09;101545.50;;;11.59;85.27
74065;BME280;62421;51.412;5.432;2022-08-21T05:10:37;101548.31;;;11.57;85.63
74065;BME280;62421;51.412;5.432;2022-08-21T05:13:02;101544.53;;;11.60;85.49
74065;BME280;62421;51.412;5.432;2022-08-21T05:15:28;101545.50;;;11.59;85.56
74065;BME280;62421;51.412;5.432;2022-08-21T05:17:55;101554.53;;;11.58;85.63
74065;BME280;62421;51.412;5.432;2022-08-21T05:20:21;101544.34;;;11.63;85.55
74065;BME280;62421;51.412;5.432;2022-08-21T05:22:46;101548.78;;;11.64;85.65
74065;BME280;62421;51.412;5.432;2022-08-21T05:25:11;101553.72;;;11.70;86.03
74065;BME280;62421;51.412;5.432;2022-08-21T05:27:38;101562.41;;;11.75;85.80
74065;BME280;62421;51.412;5.432;2022-08-21T05:30:04;101558.66;;;11.78;86.13
74065;BME280;62421;51.412;5.432;2022-08-21T05:32:30;101565.47;;;11.83;85.78
74065;BME280;62421;51.412;5.432;2022-08-21T05:34:55;101559.03;;;11.86;86.41
74065;BME280;62421;51.412;5.432;2022-08-21T05:37:20;101555.97;;;11.92;85.86
74065;BME280;62421;51.412;5.432;2022-08-21T05:39:46;101561.22;;;11.94;86.15
74065;BME280;62421;51.412;5.432;2022-08-21T05:42:11;101563.06;;;11.93;86.48
74065;BME280;62421;51.412;5.432;2022-08-21T05:44:37;101557.59;;;11.95;86.64
74065;BME280;62421;51.412;5.432;2022-08-21T05:47:07;101561.06;;;11.97;86.86
74065;BME280;62421;51.412;5.432;2022-08-21T05:49:33;101567.97;;;12.01;86.42
74065;BME280;62421;51.412;5.432;2022-08-21T05:51:58;101568.63;;;12.04;86.62
74065;BME280;62421;51.412;5.432;2022-08-21T05:54:24;101563.16;;;12.06;86.63
74065;BME280;62421;51.412;5.432;2022-08-21T05:56:50;101560.28;;;12.09;86.85
74065;BME280;62421;51.412;5.432;2022-08-21T05:59:17;101567.19;;;12.13;87.61
74065;BME280;62421;51.412;5.432;2022-08-21T06:01:43;101574.19;;;12.16;87.68
74065;BME280;62421;51.412;5.432;2022-08-21T06:04:10;101566.00;;;12.17;87.38
74065;BME280;62421;51.412;5.432;2022-08-21T06:06:35;101572.06;;;12.21;87.19
74065;BME280;62421;51.412;5.432;2022-08-21T06:09:01;101562.91;;;12.23;87.76
74065;BME280;62421;51.412;5.432;2022-08-21T06:11:27;101560.78;;;12.28;87.62
74065;BME280;62421;51.412;5.432;2022-08-21T06:13:52;101575.88;;;12.31;88.34
74065;BME280;62421;51.412;5.432;2022-08-21T06:16:17;101570.84;;;12.39;88.42
74065;BME280;62421;51.412;5.432;2022-08-21T06:18:44;101570.44;;;12.45;88.42
74065;BME280;62421;51.412;5.432;2022-08-21T06:21:10;101573.69;;;12.50;88.22
74065;BME280;62421;51.412;5.432;2022-08-21T06:23:37;101571.34;;;12.59;88.66
74065;BME280;62421;51.412;5.432;2022-08-21T06:26:03;101575.34;;;12.66;88.74
74065;BME280;62421;51.412;5.432;2022-08-21T06:28:30;101567.53;;;12.76;87.80
74065;BME280;62421;51.412;5.432;2022-08-21T06:30:56;101567.31;;;12.79;88.13
74065;BME280;62421;51.412;5.432;2022-08-21T06:33:21;101571.19;;;12.87;89.01
74065;BME280;62421;51.412;5.432;2022-08-21T06:35:46;101575.09;;;12.96;87.87
74065;BME280;62421;51.412;5.432;2022-08-21T06:38:12;101582.78;;;13.02;87.61
74065;BME280;62421;51.412;5.432;2022-08-21T06:40:37;101572.09;;;13.14;88.36
74065;BME280;62421;51.412;5.432;2022-08-21T06:43:12;101573.63;;;13.18;88.21
74065;BME280;62421;51.412;5.432;2022-08-21T06:45:37;101571.47;;;13.23;88.99
74065;BME280;62421;51.412;5.432;2022-08-21T06:48:03;101554.03;;;13.28;89.22
74065;BME280;62421;51.412;5.432;2022-08-21T06:50:29;101566.00;;;13.37;89.15
74065;BME280;62421;51.412;5.432;2022-08-21T06:53:07;101574.31;;;13.47;88.45
74065;BME280;62421;51.412;5.432;2022-08-21T06:55:33;101580.91;;;13.56;87.96
74065;BME280;62421;51.412;5.432;2022-08-21T06:57:59;101565.66;;;13.67;88.38
74065;BME280;62421;51.412;5.432;2022-08-21T07:00:25;101573.97;;;13.77;87.46
74065;BME280;62421;51.412;5.432;2022-08-21T07:02:50;101572.94;;;13.91;87.13
74065;BME280;62421;51.412;5.432;2022-08-21T07:05:16;101574.97;;;14.00;87.09
74065;BME280;62421;51.412;5.432;2022-08-21T07:07:41;101570.53;;;14.12;87.18
74065;BME280;62421;51.412;5.432;2022-08-21T07:10:07;101574.03;;;14.25;86.69
74065;BME280;62421;51.412;5.432;2022-08-21T07:12:33;101565.53;;;14.43;87.25
74065;BME280;62421;51.412;5.432;2022-08-21T07:14:58;101560.09;;;14.56;86.54
74065;BME280;62421;51.412;5.432;2022-08-21T07:17:23;101556.75;;;14.76;86.28
74065;BME280;62421;51.412;5.432;2022-08-21T07:19:49;101558.91;;;14.95;86.57
74065;BME280;62421;51.412;5.432;2022-08-21T07:22:18;101559.59;;;15.21;85.88
74065;BME280;62421;51.412;5.432;2022-08-21T07:24:45;101552.97;;;15.36;85.30
74065;BME280;62421;51.412;5.432;2022-08-21T07:27:10;101567.50;;;15.47;83.58
74065;BME280;62421;51.412;5.432;2022-08-21T07:29:36;101565.00;;;15.55;83.32
74065;BME280;62421;51.412;5.432;2022-08-21T07:32:01;101548.28;;;15.61;82.76
74065;BME280;62421;51.412;5.432;2022-08-21T07:34:27;101563.31;;;15.65;82.48
74065;BME280;62421;51.412;5.432;2022-08-21T07:36:53;101560.47;;;15.67;83.14
74065;BME280;62421;51.412;5.432;2022-08-21T07:39:18;101560.38;;;15.68;82.32
74065;BME280;62421;51.412;5.432;2022-08-21T07:41:44;101570.75;;;15.74;83.17
74065;BME280;62421;51.412;5.432;2022-08-21T07:44:09;101564.22;;;15.77;83.95
74065;BME280;62421;51.412;5.432;2022-08-21T07:46:34;101557.03;;;15.87;82.79
74065;BME280;62421;51.412;5.432;2022-08-21T07:49:00;101562.69;;;15.95;82.02
74065;BME280;62421;51.412;5.432;2022-08-21T07:51:26;101566.03;;;15.99;82.44
74065;BME280;62421;51.412;5.432;2022-08-21T07:53:54;101559.00;;;16.08;82.90
74065;BME280;62421;51.412;5.432;2022-08-21T07:56:20;101573.25;;;16.21;82.72
74065;BME280;62421;51.412;5.432;2022-08-21T07:58:46;101562.25;;;16.34;82.19
74065;BME280;62421;51.412;5.432;2022-08-21T08:01:12;101562.59;;;16.41;81.68
74065;BME280;62421;51.412;5.432;2022-08-21T08:03:38;101555.59;;;16.38;81.12
74065;BME280;62421;51.412;5.432;2022-08-21T08:06:04;101558.75;;;16.43;81.75
74065;BME280;62421;51.412;5.432;2022-08-21T08:08:30;101556.56;;;16.48;79.97
74065;BME280;62421;51.412;5.432;2022-08-21T08:10:56;101564.28;;;16.53;79.63
74065;BME280;62421;51.412;5.432;2022-08-21T08:13:22;101554.06;;;16.56;80.63
74065;BME280;62421;51.412;5.432;2022-08-21T08:15:47;101561.28;;;16.67;79.78
74065;BME280;62421;51.412;5.432;2022-08-21T08:18:12;101553.63;;;16.72;79.55
74065;BME280;62421;51.412;5.432;2022-08-21T08:20:38;101550.28;;;16.80;79.19
74065;BME280;62421;51.412;5.432;2022-08-21T08:23:04;101553.06;;;16.90;78.56
74065;BME280;62421;51.412;5.432;2022-08-21T08:25:29;101542.53;;;16.96;79.14
74065;BME280;62421;51.412;5.432;2022-08-21T08:27:54;101546.91;;;17.09;78.61
74065;BME280;62421;51.412;5.432;2022-08-21T08:30:21;101543.88;;;17.23;78.31
74065;BME280;62421;51.412;5.432;2022-08-21T08:32:48;101544.22;;;17.39;77.03
74065;BME280;62421;51.412;5.432;2022-08-21T08:35:15;101557.34;;;17.55;76.81
74065;BME280;62421;51.412;5.432;2022-08-21T08:37:42;101555.97;;;17.71;75.80
74065;BME280;62421;51.412;5.432;2022-08-21T08:40:20;101545.22;;;18.00;75.37
74065;BME280;62421;51.412;5.432;2022-08-21T08:42:48;101555.13;;;18.20;75.00
74065;BME280;62421;51.412;5.432;2022-08-21T08:45:19;101542.56;;;18.49;74.63
74065;BME280;62421;51.412;5.432;2022-08-21T08:47:55;101545.16;;;18.70;73.17
74065;BME280;62421;51.412;5.432;2022-08-21T08:50:36;101541.16;;;18.83;72.52
74065;BME280;62421;51.412;5.432;2022-08-21T08:53:07;101534.75;;;18.85;72.16
74065;BME280;62421;51.412;5.432;2022-08-21T08:55:38;101528.72;;;18.91;71.28
74065;BME280;62421;51.412;5.432;2022-08-21T08:58:05;101529.53;;;19.11;71.02
74065;BME280;62421;51.412;5.432;2022-08-21T09:00:31;101523.19;;;19.20;70.49
74065;BME280;62421;51.412;5.432;2022-08-21T09:02:59;101512.03;;;19.23;69.72
74065;BME280;62421;51.412;5.432;2022-08-21T09:05:30;101513.47;;;19.17;69.63
74065;BME280;62421;51.412;5.432;2022-08-21T09:11:24;101511.38;;;19.01;70.79
74065;BME280;62421;51.412;5.432;2022-08-21T09:16:46;101514.91;;;19.12;69.55
74065;BME280;62421;51.412;5.432;2022-08-21T09:25:03;101515.94;;;19.01;68.56
74065;BME280;62421;51.412;5.432;2022-08-21T09:27:33;101508.78;;;18.90;67.66
74065;BME280;62421;51.412;5.432;2022-08-21T09:29:59;101521.41;;;18.81;67.84
74065;BME280;62421;51.412;5.432;2022-08-21T09:32:27;101511.81;;;18.87;69.38
74065;BME280;62421;51.412;5.432;2022-08-21T09:37:26;101519.91;;;19.26;66.33
74065;BME280;62421;51.412;5.432;2022-08-21T09:39:51;101514.63;;;19.52;65.17
74065;BME280;62421;51.412;5.432;2022-08-21T09:42:27;101513.88;;;19.97;64.45
74065;BME280;62421;51.412;5.432;2022-08-21T09:45:15;101513.50;;;20.28;64.78
74065;BME280;62421;51.412;5.432;2022-08-21T09:47:41;101521.38;;;20.49;62.55
74065;BME280;62421;51.412;5.432;2022-08-21T09:50:15;101509.13;;;20.63;61.07
74065;BME280;62421;51.412;5.432;2022-08-21T09:52:53;101521.41;;;20.67;62.52
74065;BME280;62421;51.412;5.432;2022-08-21T09:58:15;101515.00;;;20.40;62.71
74065;BME280;62421;51.412;5.432;2022-08-21T10:00:42;101506.34;;;20.27;62.26
74065;BME280;62421;51.412;5.432;2022-08-21T10:05:55;101505.28;;;20.20;63.22
74065;BME280;62421;51.412;5.432;2022-08-21T10:08:22;101508.59;;;20.32;62.87
74065;BME280;62421;51.412;5.432;2022-08-21T10:11:10;101498.56;;;20.50;63.22
74065;BME280;62421;51.412;5.432;2022-08-21T10:13:40;101500.19;;;20.79;60.72
74065;BME280;62421;51.412;5.432;2022-08-21T10:21:32;101504.31;;;21.35;56.97
74065;BME280;62421;51.412;5.432;2022-08-21T10:24:05;101499.38;;;21.65;57.37
74065;BME280;62421;51.412;5.432;2022-08-21T10:29:21;101503.63;;;22.10;55.94
74065;BME280;62421;51.412;5.432;2022-08-21T10:37:18;101501.78;;;22.19;56.92
74065;BME280;62421;51.412;5.432;2022-08-21T10:40:16;101511.22;;;22.33;56.77
74065;BME280;62421;51.412;5.432;2022-08-21T10:51:20;101503.06;;;22.57;54.76
74065;BME280;62421;51.412;5.432;2022-08-21T10:54:12;101511.41;;;22.56;54.69
74065;BME280;62421;51.412;5.432;2022-08-21T10:56:41;101505.63;;;22.51;52.24
74065;BME280;62421;51.412;5.432;2022-08-21T11:06:49;101488.84;;;22.78;54.29
74065;BME280;62421;51.412;5.432;2022-08-21T11:09:22;101487.81;;;22.87;51.80
74065;BME280;62421;51.412;5.432;2022-08-21T11:11:54;101489.69;;;22.87;52.10
74065;BME280;62421;51.412;5.432;2022-08-21T11:17:11;101485.06;;;22.79;51.21
74065;BME280;62421;51.412;5.432;2022-08-21T11:19:53;101480.47;;;22.63;51.04
74065;BME280;62421;51.412;5.432;2022-08-21T11:26:00;101489.53;;;22.31;51.43
74065;BME280;62421;51.412;5.432;2022-08-21T11:27:57;101483.66;;;22.18;50.14
74065;BME280;62421;51.412;5.432;2022-08-21T11:30:28;101482.69;;;22.27;50.40
74065;BME280;62421;51.412;5.432;2022-08-21T11:33:19;101473.09;;;22.47;50.90
74065;BME280;62421;51.412;5.432;2022-08-21T11:35:51;101473.78;;;22.58;50.33
74065;BME280;62421;51.412;5.432;2022-08-21T11:38:41;101468.84;;;22.61;50.11
74065;BME280;62421;51.412;5.432;2022-08-21T11:43:39;101476.00;;;22.79;48.80
74065;BME280;62421;51.412;5.432;2022-08-21T11:51:47;101482.53;;;23.02;49.43
74065;BME280;62421;51.412;5.432;2022-08-21T11:54:28;101484.34;;;23.18;49.56
74065;BME280;62421;51.412;5.432;2022-08-21T11:57:07;101485.88;;;23.29;48.55
74065;BME280;62421;51.412;5.432;2022-08-21T11:59:40;101483.50;;;23.26;48.10
74065;BME280;62421;51.412;5.432;2022-08-21T12:02:13;101498.75;;;23.20;48.27
74065;BME280;62421;51.412;5.432;2022-08-21T12:04:56;101491.03;;;23.16;48.94
74065;BME280;62421;51.412;5.432;2022-08-21T12:07:36;101485.88;;;23.21;48.82
74065;BME280;62421;51.412;5.432;2022-08-21T12:10:07;101491.03;;;23.24;48.60
74065;BME280;62421;51.412;5.432;2022-08-21T12:12:36;101486.25;;;23.18;47.86
74065;BME280;62421;51.412;5.432;2022-08-21T12:17:51;101487.44;;;22.99;48.84
74065;BME280;62421;51.412;5.432;2022-08-21T12:20:37;101487.28;;;22.92;48.87
74065;BME280;62421;51.412;5.432;2022-08-21T12:25:43;101487.78;;;23.12;46.96
74065;BME280;62421;51.412;5.432;2022-08-21T12:28:15;101483.63;;;23.41;46.46
74065;BME280;62421;51.412;5.432;2022-08-21T12:30:46;101478.84;;;23.74;45.45
74065;BME280;62421;51.412;5.432;2022-08-21T12:33:23;101474.00;;;23.92;47.18
74065;BME280;62421;51.412;5.432;2022-08-21T12:35:51;101477.38;;;24.03;44.80
74065;BME280;62421;51.412;5.432;2022-08-21T12:38:21;101473.06;;;24.00;44.96
74065;BME280;62421;51.412;5.432;2022-08-21T12:41:04;101470.41;;;23.92;45.48
74065;BME280;62421;51.412;5.432;2022-08-21T12:43:37;101468.25;;;23.79;45.39
74065;BME280;62421;51.412;5.432;2022-08-21T12:46:04;101478.72;;;23.67;45.26
74065;BME280;62421;51.412;5.432;2022-08-21T12:48:45;101471.53;;;23.66;46.20
74065;BME280;62421;51.412;5.432;2022-08-21T12:51:13;101482.81;;;23.71;45.49
74065;BME280;62421;51.412;5.432;2022-08-21T12:53:48;101478.00;;;23.74;46.66
74065;BME280;62421;51.412;5.432;2022-08-21T12:56:16;101481.13;;;23.70;44.61
74065;BME280;62421;51.412;5.432;2022-08-21T12:59:05;101477.34;;;23.63;46.17
74065;BME280;62421;51.412;5.432;2022-08-21T13:01:36;101471.22;;;23.53;45.98
74065;BME280;62421;51.412;5.432;2022-08-21T13:04:14;101466.25;;;23.57;45.98
74065;BME280;62421;51.412;5.432;2022-08-21T13:06:44;101466.69;;;23.77;46.78
74065;BME280;62421;51.412;5.432;2022-08-21T13:09:15;101482.28;;;23.68;45.44
74065;BME280;62421;51.412;5.432;2022-08-21T13:11:45;101473.38;;;23.35;45.37
74065;BME280;62421;51.412;5.432;2022-08-21T13:14:21;101480.78;;;23.09;48.11
74065;BME280;62421;51.412;5.432;2022-08-21T13:16:53;101479.25;;;23.07;47.92
74065;BME280;62421;51.412;5.432;2022-08-21T13:19:18;101477.81;;;23.36;47.25
74065;BME280;62421;51.412;5.432;2022-08-21T13:21:45;101473.75;;;23.63;45.69
74065;BME280;62421;51.412;5.432;2022-08-21T13:26:41;101473.44;;;23.97;47.65
74065;BME280;62421;51.412;5.432;2022-08-21T13:29:09;101473.56;;;23.73;45.28
74065;BME280;62421;51.412;5.432;2022-08-21T13:31:37;101473.50;;;23.41;46.00
74065;BME280;62421;51.412;5.432;2022-08-21T13:34:04;101469.81;;;23.18;46.61
74065;BME280;62421;51.412;5.432;2022-08-21T13:36:33;101462.81;;;23.07;47.10
74065;BME280;62421;51.412;5.432;2022-08-21T13:38:59;101461.56;;;23.26;46.02
74065;BME280;62421;51.412;5.432;2022-08-21T13:41:28;101464.34;;;23.57;46.18
74065;BME280;62421;51.412;5.432;2022-08-21T13:44:00;101460.47;;;23.91;46.16
74065;BME280;62421;51.412;5.432;2022-08-21T13:46:29;101468.00;;;24.20;44.79
74065;BME280;62421;51.412;5.432;2022-08-21T13:48:55;101462.78;;;24.57;43.59
74065;BME280;62421;51.412;5.432;2022-08-21T13:51:21;101460.91;;;24.72;40.95
74065;BME280;62421;51.412;5.432;2022-08-21T13:53:53;101455.56;;;24.93;42.25
74065;BME280;62421;51.412;5.432;2022-08-21T13:56:33;101454.06;;;25.21;42.74
74065;BME280;62421;51.412;5.432;2022-08-21T13:59:06;101452.38;;;25.34;39.85
74065;BME280;62421;51.412;5.432;2022-08-21T14:01:48;101456.16;;;25.33;40.88
74065;BME280;62421;51.412;5.432;2022-08-21T14:05:02;101456.38;;;25.47;42.67
74065;BME280;62421;51.412;5.432;2022-08-21T14:07:39;101448.66;;;25.27;41.51